Time;durP1;ratioP1;P1;durP2;ratioP2;P2;SDS_P1;SDS_P2;PMS_P1;PMS_P2;Temp;Humidity;BMP_temperature;BMP_pressure;BME280_temperature;BME280_humidity;BME280_pressure;Samples;Min_cycle;Max_cycle;Signal;HPM_P1;HPM_P2
2022/07/12 00:01:10;;;;;;;17.50;8.15;;;17.30;99.90;;;;;;4972929;28;20030;-71
2022/07/12 00:03:36;;;;;;;16.27;7.18;;;17.30;99.90;;;;;;4973052;28;20015;-66
2022/07/12 00:06:03;;;;;;;16.35;7.90;;;17.30;99.90;;;;;;4973320;28;20023;-71
2022/07/12 00:08:29;;;;;;;15.07;7.10;;;17.30;99.90;;;;;;4973061;28;20030;-68
2022/07/12 00:10:54;;;;;;;17.65;7.40;;;17.30;99.90;;;;;;4971505;28;20027;-69
2022/07/12 00:13:20;;;;;;;15.10;7.72;;;17.30;99.90;;;;;;4976795;28;20069;-68
2022/07/12 00:15:45;;;;;;;15.98;7.05;;;17.30;99.90;;;;;;4976631;28;20023;-69
2022/07/12 00:18:11;;;;;;;14.45;7.15;;;17.30;99.90;;;;;;4976622;28;20069;-73
2022/07/12 00:20:37;;;;;;;15.90;7.07;;;17.30;99.90;;;;;;4976725;28;20046;-68
2022/07/12 00:23:03;;;;;;;11.93;6.55;;;17.30;99.90;;;;;;4976429;28;20015;-72
2022/07/12 00:25:28;;;;;;;15.80;7.18;;;17.20;99.90;;;;;;4976746;28;20539;-70
2022/07/12 00:27:55;;;;;;;15.15;7.07;;;17.20;99.90;;;;;;4976513;28;20081;-70
2022/07/12 00:30:21;;;;;;;14.63;7.75;;;17.20;99.90;;;;;;4976481;28;20046;-67
2022/07/12 00:32:47;;;;;;;14.43;7.70;;;17.20;99.90;;;;;;4976285;28;20030;-68
2022/07/12 00:35:13;;;;;;;14.88;7.35;;;17.20;99.90;;;;;;4976509;28;20026;-68
2022/07/12 00:37:39;;;;;;;14.60;7.03;;;17.20;99.90;;;;;;4974627;28;20077;-69
2022/07/12 00:40:06;;;;;;;14.02;6.75;;;17.20;99.90;;;;;;4976158;28;20037;-68
2022/07/12 00:42:32;;;;;;;13.27;6.63;;;17.10;99.90;;;;;;4976124;28;20019;-68
2022/07/12 00:44:59;;;;;;;11.55;6.75;;;17.10;99.90;;;;;;4975958;28;20380;-69
2022/07/12 00:47:42;;;;;;;12.90;7.13;;;17.10;99.90;;;;;;4975832;28;20106;-68
2022/07/12 00:50:09;;;;;;;12.25;6.72;;;17.10;99.90;;;;;;4975854;28;20034;-72
2022/07/12 00:52:36;;;;;;;13.38;6.63;;;17.00;99.90;;;;;;4975645;28;20346;-69
2022/07/12 00:55:03;;;;;;;15.50;6.72;;;17.00;99.90;;;;;;4976243;28;20054;-68
2022/07/12 00:57:29;;;;;;;14.65;7.18;;;17.00;99.90;;;;;;4975862;28;20026;-70
2022/07/12 00:59:54;;;;;;;13.73;7.35;;;17.00;99.90;;;;;;4975994;28;20097;-68
2022/07/12 01:02:20;;;;;;;14.68;7.45;;;17.00;99.90;;;;;;4976007;28;20223;-68
2022/07/12 01:04:46;;;;;;;14.90;7.00;;;16.90;99.90;;;;;;4974966;28;20033;-69
2022/07/12 01:07:12;;;;;;;14.23;7.13;;;16.90;99.90;;;;;;4976010;28;20516;-71
2022/07/12 01:09:38;;;;;;;13.35;7.25;;;16.90;99.90;;;;;;4975329;28;20062;-67
2022/07/12 01:12:05;;;;;;;14.68;7.57;;;16.90;99.90;;;;;;4975636;28;20022;-72
2022/07/12 01:14:31;;;;;;;15.20;7.65;;;17.00;99.90;;;;;;4975227;28;20401;-68
2022/07/12 01:16:57;;;;;;;15.43;8.18;;;16.90;99.90;;;;;;4975751;28;20572;-68
2022/07/12 01:19:23;;;;;;;19.35;8.63;;;16.90;99.90;;;;;;4975167;28;20050;-68
2022/07/12 01:21:52;;;;;;;15.80;7.65;;;16.90;99.90;;;;;;4975464;28;20031;-71
2022/07/12 01:24:19;;;;;;;16.25;7.60;;;16.90;99.90;;;;;;4974983;28;20037;-67
2022/07/12 01:26:46;;;;;;;17.35;8.90;;;16.90;99.90;;;;;;4975527;28;20026;-71
2022/07/12 01:29:12;;;;;;;20.70;8.45;;;16.80;99.90;;;;;;4975236;28;20049;-70
2022/07/12 01:31:38;;;;;;;14.35;7.55;;;16.80;99.90;;;;;;4975160;28;20368;-69
2022/07/12 01:34:04;;;;;;;18.13;8.25;;;16.90;99.90;;;;;;4974866;28;20031;-68
2022/07/12 01:36:30;;;;;;;16.05;8.23;;;16.80;99.90;;;;;;4975148;28;20035;-68
2022/07/12 01:38:56;;;;;;;16.13;8.52;;;16.80;99.90;;;;;;4975190;28;20023;-72
2022/07/12 01:41:23;;;;;;;17.58;8.80;;;16.80;99.90;;;;;;4975062;28;20454;-69
2022/07/12 01:43:49;;;;;;;16.65;8.23;;;16.80;99.90;;;;;;4974976;28;20023;-69
2022/07/12 01:46:15;;;;;;;15.77;8.43;;;16.70;99.90;;;;;;4974795;28;20151;-68
2022/07/12 01:48:40;;;;;;;18.67;8.60;;;16.70;99.90;;;;;;4974815;28;20027;-68
2022/07/12 01:51:06;;;;;;;17.23;8.40;;;16.70;99.90;;;;;;4974471;28;20051;-68
2022/07/12 01:53:31;;;;;;;18.60;9.20;;;16.70;99.90;;;;;;4974559;28;20031;-70
2022/07/12 01:55:57;;;;;;;18.23;8.45;;;16.70;99.90;;;;;;4974955;28;20031;-68
2022/07/12 01:58:23;;;;;;;15.38;8.40;;;16.60;99.90;;;;;;4973505;28;20071;-71
2022/07/12 02:00:52;;;;;;;16.08;7.75;;;16.60;99.90;;;;;;4974733;28;20018;-68
2022/07/12 02:03:18;;;;;;;16.58;8.43;;;16.60;99.90;;;;;;4973243;28;20041;-71
2022/07/12 02:05:44;;;;;;;16.63;8.18;;;16.60;99.90;;;;;;4974329;28;20027;-68
2022/07/12 02:08:10;;;;;;;16.63;8.63;;;16.60;99.90;;;;;;4974755;28;20146;-68
2022/07/12 02:10:35;;;;;;;17.80;9.18;;;16.50;99.90;;;;;;4973021;28;20117;-68
2022/07/12 02:13:05;;;;;;;19.70;9.88;;;16.50;99.90;;;;;;4974541;28;20098;-67
2022/07/12 02:15:31;;;;;;;18.73;8.88;;;16.50;99.90;;;;;;4974283;28;20018;-68
2022/07/12 02:17:57;;;;;;;19.02;9.93;;;16.40;99.90;;;;;;4974527;28;20468;-70
2022/07/12 02:20:22;;;;;;;20.38;9.93;;;16.40;99.90;;;;;;4974048;28;20031;-68
2022/07/12 02:22:48;;;;;;;18.92;8.95;;;16.40;99.90;;;;;;4974566;28;20030;-72
2022/07/12 02:25:14;;;;;;;21.15;11.95;;;16.40;99.90;;;;;;4974119;28;20014;-68
2022/07/12 02:27:40;;;;;;;18.95;9.27;;;16.40;99.90;;;;;;4974325;28;20110;-67
2022/07/12 02:30:07;;;;;;;18.92;8.73;;;16.40;99.90;;;;;;4974287;28;20022;-68
2022/07/12 02:32:33;;;;;;;21.92;9.73;;;16.40;99.90;;;;;;4974084;28;20041;-70
2022/07/12 02:34:58;;;;;;;16.30;9.23;;;16.30;99.90;;;;;;4973399;28;20034;-69
2022/07/12 02:37:25;;;;;;;18.25;9.63;;;16.30;99.90;;;;;;4974129;28;20019;-68
2022/07/12 02:39:50;;;;;;;17.13;8.77;;;16.30;99.90;;;;;;4973939;28;20023;-69
2022/07/12 02:42:16;;;;;;;18.17;9.65;;;16.30;99.90;;;;;;4972339;28;20027;-70
2022/07/12 02:44:41;;;;;;;18.23;9.07;;;16.30;99.90;;;;;;4973227;28;20049;-68
2022/07/12 02:47:07;;;;;;;18.70;9.32;;;16.30;99.90;;;;;;4973592;28;20381;-67
2022/07/12 02:49:33;;;;;;;17.38;8.52;;;16.20;99.90;;;;;;4973708;28;20396;-67
2022/07/12 02:51:58;;;;;;;19.15;9.07;;;16.30;99.90;;;;;;4973655;28;20109;-67
2022/07/12 02:54:24;;;;;;;18.65;9.13;;;16.30;99.90;;;;;;4974085;28;20058;-68
2022/07/12 02:56:50;;;;;;;17.25;8.30;;;16.20;99.90;;;;;;4973810;28;20392;-68
2022/07/12 02:59:15;;;;;;;17.40;8.45;;;16.20;99.90;;;;;;4973538;28;20023;-68
2022/07/12 03:01:41;;;;;;;18.05;7.97;;;16.20;99.90;;;;;;4973542;28;20019;-70
2022/07/12 03:04:06;;;;;;;15.77;8.50;;;16.20;99.90;;;;;;4973500;28;20075;-68
2022/07/12 03:06:32;;;;;;;17.35;8.27;;;16.20;99.90;;;;;;4973346;28;20365;-68
2022/07/12 03:08:57;;;;;;;18.83;9.10;;;16.20;99.90;;;;;;4973629;28;20042;-70
2022/07/12 03:11:23;;;;;;;18.25;9.55;;;16.20;99.90;;;;;;4973453;28;20438;-68
2022/07/12 03:13:49;;;;;;;20.58;9.07;;;16.20;99.90;;;;;;4972086;28;20514;-71
2022/07/12 03:16:14;;;;;;;19.48;9.30;;;16.10;99.90;;;;;;4973081;28;20030;-70
2022/07/12 03:18:41;;;;;;;19.08;9.40;;;16.10;99.90;;;;;;4973489;28;20404;-69
2022/07/12 03:21:07;;;;;;;17.17;9.32;;;16.10;99.90;;;;;;4973261;28;20015;-68
2022/07/12 03:23:33;;;;;;;15.55;8.13;;;16.10;99.90;;;;;;4973371;28;20073;-71
2022/07/12 03:25:58;;;;;;;14.40;8.13;;;16.10;99.90;;;;;;4973130;28;20035;-69
2022/07/12 03:28:25;;;;;;;15.20;8.15;;;16.10;99.90;;;;;;4973310;28;20049;-68
2022/07/12 03:30:51;;;;;;;16.45;8.38;;;16.10;99.90;;;;;;4973295;28;20404;-68
2022/07/12 03:33:16;;;;;;;16.25;9.35;;;16.10;99.90;;;;;;4972883;28;20030;-72
2022/07/12 03:35:42;;;;;;;19.17;9.20;;;16.10;99.90;;;;;;4973138;28;20030;-69
2022/07/12 03:38:07;;;;;;;18.88;9.85;;;16.10;99.90;;;;;;4972465;28;20031;-68
2022/07/12 03:40:34;;;;;;;21.13;9.95;;;16.10;99.90;;;;;;4972616;28;20031;-69
2022/07/12 03:43:00;;;;;;;19.08;9.50;;;16.10;99.90;;;;;;4972949;28;20155;-71
2022/07/12 03:45:25;;;;;;;19.35;9.07;;;16.10;99.90;;;;;;4972642;28;20087;-69
2022/07/12 03:47:51;;;;;;;17.60;9.90;;;16.10;99.90;;;;;;4975895;28;20031;-68
2022/07/12 03:50:17;;;;;;;17.65;9.50;;;16.10;99.90;;;;;;4976636;28;20427;-72
2022/07/12 03:52:43;;;;;;;18.27;9.52;;;16.20;99.90;;;;;;4976961;28;20027;-68
2022/07/12 03:55:13;;;;;;;17.48;9.13;;;16.20;99.90;;;;;;4976861;28;20465;-68
2022/07/12 03:57:39;;;;;;;18.67;10.02;;;16.20;99.90;;;;;;4976458;28;20454;-72
2022/07/12 04:00:11;;;;;;;16.52;8.95;;;16.30;99.90;;;;;;4976779;28;20031;-68
2022/07/12 04:02:37;;;;;;;14.73;8.27;;;16.30;99.90;;;;;;4975466;28;20022;-68
2022/07/12 04:05:05;;;;;;;14.50;8.45;;;16.40;99.90;;;;;;4976846;28;20105;-68
2022/07/12 04:07:31;;;;;;;12.68;7.50;;;16.40;99.90;;;;;;4975386;28;20357;-68
2022/07/12 04:09:57;;;;;;;16.60;8.68;;;16.50;99.90;;;;;;4977047;28;20031;-68
2022/07/12 04:12:22;;;;;;;14.50;8.38;;;16.50;99.90;;;;;;4976383;28;20458;-71
2022/07/12 04:14:48;;;;;;;15.18;8.35;;;16.60;99.90;;;;;;4976745;28;20082;-68
2022/07/12 04:17:13;;;;;;;17.00;7.75;;;16.60;99.90;;;;;;4976349;28;20085;-69
2022/07/12 04:19:39;;;;;;;13.15;7.43;;;16.70;99.90;;;;;;4976416;28;20022;-68
2022/07/12 04:22:04;;;;;;;15.02;8.32;;;16.70;99.90;;;;;;4976673;28;20418;-69
2022/07/12 04:24:30;;;;;;;14.98;8.30;;;16.80;99.90;;;;;;4976571;28;20035;-68
2022/07/12 04:26:55;;;;;;;16.23;8.77;;;16.80;99.90;;;;;;4976454;28;20033;-71
2022/07/12 04:29:21;;;;;;;15.55;8.30;;;16.90;99.90;;;;;;4976325;28;20450;-68
2022/07/12 04:31:47;;;;;;;15.77;8.77;;;16.90;99.90;;;;;;4976359;28;20023;-69
2022/07/12 04:34:16;;;;;;;15.75;7.97;;;17.00;99.90;;;;;;4976176;28;20023;-67
2022/07/12 04:36:45;;;;;;;15.55;8.63;;;17.10;99.90;;;;;;4976243;28;20023;-70
2022/07/12 04:39:12;;;;;;;15.23;8.15;;;17.30;99.90;;;;;;4975919;28;20037;-67
2022/07/12 04:41:38;;;;;;;12.60;7.78;;;17.30;99.90;;;;;;4974530;28;20117;-70
2022/07/12 04:44:05;;;;;;;12.90;7.97;;;17.40;99.90;;;;;;4976125;28;20511;-68
2022/07/12 04:46:32;;;;;;;15.02;8.45;;;17.50;99.90;;;;;;4976086;28;20031;-68
2022/07/12 04:48:57;;;;;;;14.73;7.80;;;17.60;99.90;;;;;;4975988;28;20042;-68
2022/07/12 04:51:23;;;;;;;13.77;8.10;;;17.60;99.90;;;;;;4974573;28;20023;-68
2022/07/12 04:53:49;;;;;;;13.32;7.63;;;17.80;99.90;;;;;;4975908;28;20110;-69
2022/07/12 04:56:14;;;;;;;14.38;8.02;;;17.90;99.90;;;;;;4975802;28;20122;-71
2022/07/12 04:58:40;;;;;;;14.55;8.15;;;18.00;99.90;;;;;;4975249;28;20345;-68
2022/07/12 05:01:07;;;;;;;14.45;8.13;;;18.10;99.90;;;;;;4974413;28;20026;-68
2022/07/12 05:03:32;;;;;;;12.10;7.35;;;18.10;99.90;;;;;;4974586;28;20042;-70
2022/07/12 05:05:58;;;;;;;14.52;8.38;;;18.30;99.90;;;;;;4975803;28;20400;-71
2022/07/12 05:08:24;;;;;;;13.65;8.55;;;18.30;99.90;;;;;;4974418;28;20091;-69
2022/07/12 05:10:49;;;;;;;15.85;8.77;;;18.40;99.90;;;;;;4975872;28;20392;-69
2022/07/12 05:13:15;;;;;;;15.13;8.27;;;18.40;99.90;;;;;;4976104;28;20034;-69
2022/07/12 05:15:40;;;;;;;14.05;8.65;;;18.40;99.90;;;;;;4975598;28;20453;-68
2022/07/12 05:18:06;;;;;;;12.48;8.40;;;18.50;99.90;;;;;;4975992;28;20141;-73
2022/07/12 05:20:32;;;;;;;13.63;8.23;;;18.60;99.90;;;;;;4975819;28;20035;-68
2022/07/12 05:22:57;;;;;;;22.25;13.90;;;18.70;99.90;;;;;;4975369;28;20030;-71
2022/07/12 05:25:23;;;;;;;14.48;9.35;;;18.80;99.90;;;;;;4975767;28;20026;-70
2022/07/12 05:27:48;;;;;;;14.27;8.10;;;19.00;99.90;;;;;;4975588;28;20066;-67
2022/07/12 05:30:14;;;;;;;14.57;8.88;;;19.20;99.90;;;;;;4975517;28;20384;-69
2022/07/12 05:32:39;;;;;;;14.20;7.90;;;19.40;99.90;;;;;;4975352;28;20516;-68
2022/07/12 05:35:05;;;;;;;14.50;8.70;;;19.60;99.90;;;;;;4974286;28;20022;-70
2022/07/12 05:37:31;;;;;;;11.90;8.13;;;19.90;99.90;;;;;;4973910;28;20050;-69
2022/07/12 05:39:57;;;;;;;14.10;7.72;;;20.40;99.90;;;;;;4975220;28;20041;-71
2022/07/12 05:42:23;;;;;;;12.02;7.75;;;20.90;99.90;;;;;;4975041;28;20369;-68
2022/07/12 05:44:48;;;;;;;10.73;6.95;;;21.50;99.90;;;;;;4974492;28;20049;-68
2022/07/12 05:47:14;;;;;;;11.90;6.85;;;22.00;99.90;;;;;;4975001;28;20061;-69
2022/07/12 05:49:40;;;;;;;11.65;6.50;;;22.50;99.90;;;;;;4975261;28;20042;-67
2022/07/12 05:54:50;;;;;;;9.88;5.95;;;23.80;99.90;;;;;;4975243;28;20536;-69
2022/07/12 05:57:16;;;;;;;9.98;6.13;;;24.40;99.90;;;;;;4975317;28;20106;-68
2022/07/12 05:59:41;;;;;;;12.05;6.15;;;24.70;99.90;;;;;;4975410;28;20065;-70
2022/07/12 06:02:07;;;;;;;10.18;5.88;;;25.10;99.90;;;;;;4975236;28;20031;-68
2022/07/12 06:04:32;;;;;;;9.20;5.75;;;25.30;99.90;;;;;;4973109;28;20027;-68
2022/07/12 06:06:58;;;;;;;9.82;6.18;;;25.30;99.90;;;;;;4974476;28;20030;-69
2022/07/12 06:09:24;;;;;;;11.25;6.82;;;25.10;99.90;;;;;;4973793;28;20035;-68
2022/07/12 06:11:49;;;;;;;9.07;6.45;;;24.80;99.90;;;;;;4974872;28;20038;-68
2022/07/12 06:14:15;;;;;;;9.82;6.65;;;24.40;99.90;;;;;;4975620;28;20037;-67
2022/07/12 06:16:41;;;;;;;10.20;6.50;;;24.10;99.90;;;;;;4974374;28;20097;-68
2022/07/12 06:19:06;;;;;;;12.20;5.88;;;23.70;99.90;;;;;;4974292;28;20488;-68
2022/07/12 06:21:32;;;;;;;8.70;6.28;;;23.50;99.90;;;;;;4974273;28;20027;-70
2022/07/12 06:23:58;;;;;;;11.85;6.82;;;23.30;99.90;;;;;;4974631;28;20462;-70
2022/07/12 06:26:24;;;;;;;8.70;6.15;;;23.20;99.90;;;;;;4974579;28;20038;-67
2022/07/12 06:28:49;;;;;;;12.57;5.75;;;23.20;99.90;;;;;;4972358;28;20023;-67
2022/07/12 06:31:15;;;;;;;10.23;6.43;;;23.30;99.90;;;;;;4974554;28;20027;-69
2022/07/12 06:33:40;;;;;;;7.60;5.70;;;23.40;99.90;;;;;;4973889;28;20097;-68
2022/07/12 06:36:06;;;;;;;11.02;6.28;;;23.50;99.90;;;;;;4974210;28;20086;-69
2022/07/12 06:38:31;;;;;;;10.88;5.82;;;23.60;99.90;;;;;;4974270;28;20077;-67
2022/07/12 06:40:57;;;;;;;8.50;5.65;;;23.80;99.90;;;;;;4971628;28;20025;-68
2022/07/12 06:43:22;;;;;;;10.70;5.78;;;24.00;99.90;;;;;;4973939;28;20019;-72
2022/07/12 06:45:48;;;;;;;8.15;5.28;;;24.50;99.90;;;;;;4973715;28;20043;-70
2022/07/12 06:48:13;;;;;;;10.60;5.88;;;24.70;99.90;;;;;;4973705;28;20534;-67
2022/07/12 06:50:39;;;;;;;7.88;5.53;;;25.20;99.90;;;;;;4973745;28;20137;-67
2022/07/12 06:53:05;;;;;;;7.28;4.60;;;25.80;99.90;;;;;;4974461;28;20027;-70
2022/07/12 06:55:30;;;;;;;10.77;5.45;;;26.60;98.60;;;;;;4973501;28;20065;-69
2022/07/12 06:57:56;;;;;;;8.10;5.05;;;27.30;97.30;;;;;;4972154;28;20025;-67
2022/07/12 07:00:22;;;;;;;8.02;5.03;;;27.80;96.50;;;;;;4974111;28;20319;-71
2022/07/12 07:02:47;;;;;;;8.50;4.95;;;27.90;96.10;;;;;;4972692;28;20512;-68
2022/07/12 07:05:15;;;;;;;7.88;4.88;;;27.80;96.00;;;;;;4973340;28;20050;-68
2022/07/12 07:07:41;;;;;;;8.30;5.55;;;27.50;96.00;;;;;;4972475;28;20369;-67
2022/07/12 07:10:07;;;;;;;8.55;5.20;;;27.10;96.40;;;;;;4972652;28;20050;-66
2022/07/12 07:12:32;;;;;;;8.40;5.25;;;26.90;96.90;;;;;;4973345;28;20057;-72
2022/07/12 07:14:58;;;;;;;8.23;5.57;;;27.00;96.80;;;;;;4973317;28;20412;-68
2022/07/12 07:17:23;;;;;;;7.18;4.68;;;27.00;96.70;;;;;;4973925;28;20022;-67
2022/07/12 07:19:49;;;;;;;8.02;5.60;;;27.10;96.60;;;;;;4973618;28;20453;-68
2022/07/12 07:22:15;;;;;;;11.95;5.93;;;27.40;96.20;;;;;;4973441;28;20031;-67
2022/07/12 07:24:41;;;;;;;9.27;5.65;;;27.80;96.00;;;;;;4973943;28;20037;-68
2022/07/12 07:27:07;;;;;;;7.95;5.43;;;28.30;95.30;;;;;;4973695;28;20362;-70
2022/07/12 07:32:18;;;;;;;7.95;5.15;;;29.20;93.70;;;;;;4973726;28;20369;-72
2022/07/12 07:34:45;;;;;;;8.32;5.03;;;29.30;93.60;;;;;;4973485;28;20023;-70
2022/07/12 07:37:11;;;;;;;6.45;4.72;;;29.30;93.40;;;;;;4972806;28;20030;-71
2022/07/12 07:39:36;;;;;;;7.22;4.63;;;29.40;93.20;;;;;;4968427;28;20023;-70
2022/07/12 07:42:03;;;;;;;8.18;4.40;;;29.40;93.40;;;;;;4973458;28;20050;-68
2022/07/12 07:44:29;;;;;;;7.90;4.20;;;29.70;92.80;;;;;;4972002;28;20077;-71
2022/07/12 07:46:54;;;;;;;7.35;4.68;;;29.70;92.10;;;;;;4973290;28;20058;-67
2022/07/12 07:49:20;;;;;;;6.20;3.45;;;29.40;92.70;;;;;;4973471;28;20045;-70
2022/07/12 07:51:45;;;;;;;5.72;3.80;;;29.60;92.60;;;;;;4973345;28;20027;-69
2022/07/12 07:54:11;;;;;;;6.55;3.83;;;29.90;91.70;;;;;;4973424;28;20019;-71
2022/07/12 07:56:36;;;;;;;4.22;3.83;;;29.40;91.90;;;;;;4973206;28;20022;-68
2022/07/12 07:59:02;;;;;;;4.32;3.17;;;29.00;92.40;;;;;;4973527;28;20472;-67
2022/07/12 08:01:44;;;;;;;5.10;3.00;;;28.80;92.30;;;;;;4973429;28;20306;-67
2022/07/12 08:04:11;;;;;;;4.45;3.22;;;28.60;92.90;;;;;;4973310;28;20015;-67
2022/07/12 08:06:36;;;;;;;5.53;3.40;;;28.40;93.00;;;;;;4973293;28;20035;-68
2022/07/12 08:09:03;;;;;;;3.70;2.60;;;28.10;93.20;;;;;;4973437;28;20070;-67
2022/07/12 08:11:28;;;;;;;4.30;2.75;;;28.00;93.50;;;;;;4973207;28;20066;-69
2022/07/12 08:13:54;;;;;;;4.78;3.45;;;28.00;93.50;;;;;;4972572;28;20027;-70
2022/07/12 08:16:19;;;;;;;7.10;3.42;;;28.00;93.30;;;;;;4971630;28;20532;-67
2022/07/12 08:18:45;;;;;;;3.97;3.25;;;28.10;93.10;;;;;;4973485;28;20019;-70
2022/07/12 08:21:10;;;;;;;6.53;3.90;;;28.30;93.00;;;;;;4973145;28;20027;-69
2022/07/12 08:23:36;;;;;;;6.00;3.17;;;28.50;92.70;;;;;;4973159;28;20038;-67
2022/07/12 08:26:01;;;;;;;7.35;3.72;;;28.60;92.80;;;;;;4971218;28;20085;-70
2022/07/12 08:28:27;;;;;;;5.32;3.53;;;28.90;92.50;;;;;;4972532;28;20077;-68
2022/07/12 08:30:53;;;;;;;5.53;3.63;;;29.30;92.00;;;;;;4972611;28;20500;-66
2022/07/12 08:33:19;;;;;;;9.70;4.22;;;29.80;91.90;;;;;;4972811;28;20372;-67
2022/07/12 08:35:44;;;;;;;5.72;4.47;;;30.60;90.90;;;;;;4976300;28;20068;-70
2022/07/12 08:38:10;;;;;;;7.35;3.75;;;31.10;90.60;;;;;;4976902;28;20023;-68
2022/07/12 08:40:36;;;;;;;7.35;3.50;;;31.70;89.20;;;;;;4976860;28;20453;-67
2022/07/12 08:43:02;;;;;;;4.88;3.70;;;32.10;88.30;;;;;;4976542;28;20031;-67
2022/07/12 08:45:28;;;;;;;5.95;3.42;;;32.50;87.00;;;;;;4976589;28;20113;-69
2022/07/12 08:47:54;;;;;;;4.78;3.80;;;33.40;85.30;;;;;;4976609;28;20159;-69
2022/07/12 08:50:22;;;;;;;6.68;4.00;;;34.30;83.70;;;;;;4976296;28;20035;-69
2022/07/12 08:52:50;;;;;;;6.97;4.32;;;34.60;81.40;;;;;;4976556;28;20019;-68
2022/07/12 08:55:23;;;;;;;8.27;5.32;;;34.50;80.00;;;;;;4976466;28;20030;-69
2022/07/12 08:57:50;;;;;;;6.85;4.13;;;34.40;79.50;;;;;;4975945;28;20389;-70
2022/07/12 09:00:16;;;;;;;8.93;4.72;;;34.40;79.70;;;;;;4976305;28;20018;-71
2022/07/12 09:02:46;;;;;;;8.30;4.30;;;34.50;79.10;;;;;;4976257;28;20033;-70
2022/07/12 09:05:13;;;;;;;8.30;4.70;;;34.20;79.20;;;;;;4976215;28;20023;-71
2022/07/12 09:07:39;;;;;;;7.57;4.70;;;34.20;79.40;;;;;;4976249;28;20027;-70
2022/07/12 09:10:09;;;;;;;8.60;5.32;;;34.10;78.90;;;;;;4975847;28;20045;-69
2022/07/12 09:12:35;;;;;;;4.80;3.47;;;34.20;79.50;;;;;;4976388;28;20114;-68
2022/07/12 09:15:19;;;;;;;9.52;4.18;;;34.20;79.00;;;;;;4974453;28;20073;-71
2022/07/12 09:17:57;;;;;;;9.93;3.95;;;34.30;78.80;;;;;;4955446;29;20137;-68
2022/07/12 09:20:29;;;;;;;5.72;4.20;;;34.40;77.80;;;;;;4957080;28;20067;-68
2022/07/12 09:22:57;;;;;;;6.45;4.55;;;34.80;77.20;;;;;;4956873;28;20041;-68
2022/07/12 09:25:24;;;;;;;7.85;4.20;;;35.10;76.10;;;;;;4955662;28;20033;-68
2022/07/12 09:28:02;;;;;;;9.38;5.40;;;35.10;75.50;;;;;;4960291;28;20111;-67
2022/07/12 09:30:29;;;;;;;6.38;4.50;;;34.70;75.90;;;;;;4961286;28;20062;-69
2022/07/12 09:38:26;;;;;;;11.88;5.93;;;35.20;73.50;;;;;;4955808;29;20055;-71
2022/07/12 09:40:53;;;;;;;8.70;5.03;;;35.30;74.90;;;;;;4956312;28;20051;-68
2022/07/12 09:43:19;;;;;;;9.85;5.95;;;35.60;73.90;;;;;;4955637;28;20396;-71
2022/07/12 09:45:47;;;;;;;11.27;5.35;;;35.80;73.40;;;;;;4955763;28;20039;-70
2022/07/12 09:48:13;;;;;;;9.70;5.60;;;36.00;72.90;;;;;;4956309;28;20154;-71
2022/07/12 09:50:39;;;;;;;9.63;5.93;;;35.90;73.30;;;;;;4986162;28;20130;-67
2022/07/12 09:53:09;;;;;;;9.68;5.18;;;36.00;73.40;;;;;;4956339;28;20027;-68
2022/07/12 09:55:39;;;;;;;8.93;5.90;;;36.40;73.10;;;;;;4955698;28;20029;-67
2022/07/12 09:58:07;;;;;;;13.15;6.22;;;37.00;72.20;;;;;;4955340;28;20360;-69
2022/07/12 10:00:34;;;;;;;9.57;5.40;;;37.60;71.50;;;;;;4956159;28;20035;-68
2022/07/12 10:03:00;;;;;;;10.07;6.13;;;38.20;70.30;;;;;;4955998;28;20019;-67
2022/07/12 10:05:26;;;;;;;10.65;5.72;;;38.90;69.20;;;;;;4955905;28;20058;-69
2022/07/12 10:07:51;;;;;;;11.77;5.40;;;39.70;68.10;;;;;;4956098;28;20113;-68
2022/07/12 10:10:18;;;;;;;6.40;4.90;;;40.30;66.40;;;;;;4955536;28;20487;-68
2022/07/12 10:12:44;;;;;;;7.07;4.90;;;40.80;65.20;;;;;;4955547;28;20039;-67
2022/07/12 10:15:15;;;;;;;8.60;4.93;;;41.00;63.20;;;;;;4955793;28;20028;-67
2022/07/12 10:17:43;;;;;;;9.45;4.70;;;41.00;63.20;;;;;;4955545;28;20074;-71
2022/07/12 10:20:22;;;;;;;8.38;4.72;;;41.30;62.80;;;;;;4955579;28;20027;-66
2022/07/12 10:22:48;;;;;;;5.63;4.18;;;41.50;61.40;;;;;;4955622;28;20453;-69
2022/07/12 10:25:26;;;;;;;7.18;3.92;;;41.30;60.60;;;;;;4954853;28;20039;-66
2022/07/12 10:27:51;;;;;;;7.88;4.43;;;40.60;60.30;;;;;;4955552;28;20450;-68
2022/07/12 10:30:23;;;;;;;8.10;5.00;;;40.60;59.50;;;;;;4962399;28;20053;-69
2022/07/12 10:32:52;;;;;;;7.30;4.35;;;40.60;58.70;;;;;;4974800;28;20023;-66
2022/07/12 10:35:20;;;;;;;7.22;4.32;;;40.70;59.20;;;;;;4974708;28;20022;-67
2022/07/12 10:38:13;;;;;;;7.00;4.50;;;41.00;58.70;;;;;;4974088;28;20018;-70
2022/07/12 10:40:39;;;;;;;8.25;4.20;;;41.60;58.30;;;;;;4973271;28;20029;-69
2022/07/12 10:43:05;;;;;;;6.85;4.85;;;42.10;57.70;;;;;;4974759;28;20461;-67
2022/07/12 10:45:40;;;;;;;6.28;4.95;;;42.20;57.60;;;;;;4974346;28;20050;-67
2022/07/12 10:48:21;;;;;;;6.45;3.60;;;42.30;56.50;;;;;;4974065;28;20030;-70
2022/07/12 10:50:55;;;;;;;9.57;3.45;;;42.00;55.10;;;;;;4974381;28;20122;-69
2022/07/12 10:53:40;;;;;;;8.73;5.10;;;41.40;52.60;;;;;;4974154;28;20131;-70
2022/07/12 10:56:16;;;;;;;7.85;4.50;;;41.00;55.00;;;;;;4972196;28;20113;-67
2022/07/12 10:58:53;;;;;;;7.18;4.53;;;41.30;55.80;;;;;;4972031;28;20023;-67
2022/07/12 11:01:25;;;;;;;9.50;5.47;;;41.50;56.20;;;;;;4974254;28;20026;-67
2022/07/12 11:03:55;;;;;;;9.57;5.07;;;41.50;56.80;;;;;;4974269;28;20105;-68
2022/07/12 11:06:22;;;;;;;13.35;5.78;;;42.10;57.80;;;;;;4974183;28;20030;-67
2022/07/12 11:08:51;;;;;;;11.15;6.72;;;42.60;57.80;;;;;;4973607;28;20029;-68
2022/07/12 11:11:17;;;;;;;10.55;5.88;;;43.00;57.30;;;;;;4974113;28;20034;-70
2022/07/12 11:13:43;;;;;;;10.23;5.80;;;43.30;57.20;;;;;;4973920;28;20022;-69
2022/07/12 11:16:09;;;;;;;12.32;6.78;;;43.50;56.90;;;;;;4974085;28;20085;-69
2022/07/12 11:18:36;;;;;;;11.32;6.10;;;43.60;56.50;;;;;;4974162;28;20054;-67
2022/07/12 11:21:02;;;;;;;9.55;5.45;;;43.50;56.20;;;;;;4974029;28;20113;-68
2022/07/12 11:23:29;;;;;;;8.32;5.35;;;43.20;55.80;;;;;;4973909;28;20015;-69
2022/07/12 11:26:02;;;;;;;9.82;6.25;;;42.80;56.10;;;;;;4972604;28;20483;-68
2022/07/12 11:28:29;;;;;;;8.93;5.32;;;42.80;55.80;;;;;;4973987;28;20049;-68
2022/07/12 11:31:06;;;;;;;8.32;6.18;;;42.80;55.90;;;;;;4972067;28;20122;-67
2022/07/12 11:33:46;;;;;;;8.00;5.40;;;42.90;55.90;;;;;;4973553;28;20035;-68
2022/07/12 11:36:13;;;;;;;9.30;5.73;;;43.00;55.70;;;;;;4973512;28;20408;-68
2022/07/12 11:38:41;;;;;;;10.52;5.80;;;43.30;55.30;;;;;;4973554;28;20253;-67
2022/07/12 11:41:07;;;;;;;10.05;6.38;;;43.60;55.20;;;;;;4973576;28;20035;-68
2022/07/12 11:43:35;;;;;;;12.85;6.88;;;43.70;55.10;;;;;;4973668;28;20019;-67
2022/07/12 11:46:02;;;;;;;8.23;5.90;;;43.60;55.10;;;;;;4971860;28;20496;-68
2022/07/12 11:48:32;;;;;;;10.52;5.95;;;43.50;55.00;;;;;;4972902;28;20039;-67
2022/07/12 11:51:02;;;;;;;15.13;8.17;;;43.60;55.10;;;;;;4973747;28;20019;-66
2022/07/12 11:53:28;;;;;;;8.88;5.75;;;43.60;54.90;;;;;;4973162;28;20077;-70
2022/07/12 11:55:56;;;;;;;9.93;5.97;;;43.30;54.90;;;;;;4972140;28;20035;-66
2022/07/12 11:58:24;;;;;;;7.88;5.53;;;43.10;55.10;;;;;;4973717;28;20019;-67
2022/07/12 12:00:50;;;;;;;9.98;6.05;;;43.10;55.40;;;;;;4973481;28;20425;-68
2022/07/12 12:03:18;;;;;;;12.10;7.50;;;42.80;55.20;;;;;;4973122;28;20023;-68
2022/07/12 12:05:46;;;;;;;12.00;7.30;;;42.60;55.30;;;;;;4973561;28;20050;-69
2022/07/12 12:08:12;;;;;;;10.60;5.97;;;42.40;55.30;;;;;;4975027;28;20049;-67
2022/07/12 12:10:40;;;;;;;11.05;6.95;;;41.80;55.70;;;;;;4977397;28;20104;-66
2022/07/12 12:13:14;;;;;;;11.60;6.28;;;41.50;56.10;;;;;;4975903;28;20368;-67
2022/07/12 12:15:39;;;;;;;10.57;6.68;;;41.50;56.30;;;;;;4977072;28;20414;-68
2022/07/12 12:18:06;;;;;;;9.13;6.70;;;41.30;56.30;;;;;;4976855;28;20071;-68
2022/07/12 12:20:43;;;;;;;11.85;6.45;;;40.50;57.00;;;;;;4977134;28;20062;-67
2022/07/12 12:23:17;;;;;;;10.88;6.78;;;39.60;57.90;;;;;;4977292;28;20025;-67
2022/07/12 12:25:45;;;;;;;10.88;6.63;;;39.00;58.60;;;;;;4977322;28;20046;-69
2022/07/12 12:28:11;;;;;;;8.88;6.22;;;38.50;59.20;;;;;;4976891;28;20022;-67
2022/07/12 12:30:53;;;;;;;16.83;7.78;;;38.10;59.50;;;;;;4976130;28;20034;-67
2022/07/12 12:33:35;;;;;;;;;;;37.80;60.10;;;;;;4977368;28;20018;-69
2022/07/12 12:36:23;;;;;;;11.90;6.55;;;37.70;60.10;;;;;;4976971;28;19902;-67
2022/07/12 12:38:56;;;;;;;20.88;10.15;;;37.40;60.70;;;;;;4977030;28;20094;-68
2022/07/12 12:41:23;;;;;;;13.38;7.32;;;37.10;61.20;;;;;;4977017;28;20038;-67
2022/07/12 12:43:59;;;;;;;12.77;7.75;;;36.70;61.60;;;;;;4977145;28;20030;-68
2022/07/12 12:46:47;;;;;;;19.30;11.55;;;36.30;62.20;;;;;;4976863;28;20517;-67
2022/07/12 12:49:13;;;;;;;23.70;14.45;;;35.80;62.60;;;;;;4976588;28;20058;-66
2022/07/12 12:51:55;;;;;;;16.80;10.45;;;35.40;62.90;;;;;;4976564;28;20035;-67